VNKT

Kathmandu/Tribhuvan International Airport

Airport
ICAO code
VNKT
IATA Code
KTM
Summary
ICAO Region
APAC
ICAO Territory
Location

Kathmandu,

Serving
Kathmandu
Elevation
4390 ft
Coordinates
27° 41' 50" N , 85° 21' 28" E
KCC
Metar
Observation
VNKT 302000Z VRB02KT 4000 BR FEW010 SCT030 BKN100 11/08 Q1020 NOSIG
Station
Kathmandu Airport
Date/Time
2023-01-30 21:00:00
Wind speed
02 kts
Lowest cloud amount
few clouds
Temperature
11°C
Dew point
8°C
Humidity
81%
QNH
1020 hPa
Weather condition
n/a

International airport serving the capital city of Nepal.

Climatology

Humid “subtropical” climate (Köppen climate classification Cwa) - characterized by hot, humid summers and cool winters. Significant amounts of precipitation occur in all seasons in most areas. Humid subtropical climates in Asia differ from those in other continents, in that they generally have a pronounced dry winter.

SKYbrary Partners:

Safety knowledge contributed by: